createdAt,value
2024-03-23T00:00:23.465Z,766.00
2024-03-23T00:01:23.433Z,763.00
2024-03-23T00:02:23.516Z,764.00
2024-03-23T00:03:23.524Z,765.00
2024-03-23T00:04:23.572Z,763.00
2024-03-23T00:05:23.625Z,761.00
2024-03-23T00:06:23.683Z,758.00
2024-03-23T00:07:23.725Z,757.00
2024-03-23T00:08:23.779Z,757.00
2024-03-23T00:09:23.896Z,754.00
2024-03-23T00:10:23.866Z,753.00
2024-03-23T00:11:23.910Z,750.00
2024-03-23T00:12:23.999Z,750.00
2024-03-23T00:13:24.009Z,748.00
2024-03-23T00:14:24.055Z,748.00
2024-03-23T00:15:24.122Z,744.00
2024-03-23T00:16:24.150Z,742.00
2024-03-23T00:17:24.195Z,741.00
2024-03-23T00:18:24.269Z,739.00
2024-03-23T00:19:24.325Z,739.00
2024-03-23T00:20:24.350Z,737.00
2024-03-23T00:21:24.439Z,740.00
2024-03-23T00:22:24.451Z,746.00
2024-03-23T00:23:24.525Z,747.00
2024-03-23T00:24:24.574Z,750.00
2024-03-23T00:25:24.622Z,754.00
2024-03-23T00:26:24.645Z,757.00
2024-03-23T00:27:24.738Z,757.00
2024-03-23T00:28:24.750Z,753.00
2024-03-23T00:29:24.823Z,752.00
2024-03-23T00:30:24.894Z,752.00
2024-03-23T00:31:24.921Z,750.00
2024-03-23T00:32:24.973Z,749.00
2024-03-23T00:33:25.038Z,750.00
2024-03-23T00:34:25.088Z,750.00
2024-03-23T00:35:25.127Z,750.00
2024-03-23T00:36:25.205Z,752.00
2024-03-23T00:37:25.237Z,753.00
2024-03-23T00:38:25.349Z,754.00
2024-03-23T00:39:25.367Z,752.00
2024-03-23T00:40:25.425Z,750.00
2024-03-23T00:41:25.458Z,751.00
2024-03-23T00:42:25.525Z,752.00
2024-03-23T00:43:25.565Z,751.00
2024-03-23T00:44:25.624Z,752.00
2024-03-23T00:45:25.660Z,753.00
2024-03-23T00:46:25.756Z,752.00
2024-03-23T00:47:25.795Z,751.00
2024-03-23T00:48:25.816Z,750.00
2024-03-23T00:49:25.879Z,749.00
2024-03-23T00:50:25.915Z,752.00
2024-03-23T00:51:25.963Z,753.00
2024-03-23T00:52:26.056Z,750.00
2024-03-23T00:53:26.063Z,749.00
2024-03-23T00:54:26.116Z,750.00
2024-03-23T00:55:26.163Z,745.00
2024-03-23T00:56:26.226Z,743.00
2024-03-23T00:57:26.285Z,743.00
2024-03-23T00:58:26.318Z,742.00
2024-03-23T00:59:26.377Z,741.00
2024-03-23T01:00:26.436Z,744.00
2024-03-23T01:01:26.502Z,742.00
2024-03-23T01:02:26.541Z,744.00
2024-03-23T01:03:26.611Z,742.00
2024-03-23T01:04:26.647Z,740.00
2024-03-23T01:05:26.692Z,740.00
2024-03-23T01:06:26.743Z,741.00
2024-03-23T01:07:26.829Z,743.00
2024-03-23T01:08:26.844Z,746.00
2024-03-23T01:09:26.906Z,746.00
2024-03-23T01:10:26.944Z,742.00
2024-03-23T01:11:27.005Z,741.00
2024-03-23T01:12:27.060Z,736.00
2024-03-23T01:13:27.106Z,736.00
2024-03-23T01:14:27.169Z,733.00
2024-03-23T01:15:27.246Z,736.00
2024-03-23T01:16:27.299Z,738.00
2024-03-23T01:17:27.384Z,739.00
2024-03-23T01:18:27.392Z,739.00
2024-03-23T01:19:27.466Z,736.00
2024-03-23T01:20:27.558Z,737.00
2024-03-23T01:21:27.599Z,738.00
2024-03-23T01:22:27.671Z,735.00
2024-03-23T01:23:27.726Z,734.00
2024-03-23T01:24:27.768Z,733.00
2024-03-23T01:25:27.830Z,735.00
2024-03-23T01:26:27.890Z,735.00
2024-03-23T01:27:27.947Z,735.00
2024-03-23T01:28:28.005Z,734.00
2024-03-23T01:29:28.080Z,736.00
2024-03-23T01:30:28.150Z,738.00
2024-03-23T01:31:28.170Z,737.00
2024-03-23T01:32:28.258Z,740.00
2024-03-23T01:33:28.289Z,739.00
2024-03-23T01:34:28.358Z,738.00
2024-03-23T01:35:28.410Z,741.00
2024-03-23T01:36:28.477Z,740.00
2024-03-23T01:37:28.522Z,739.00
2024-03-23T01:38:28.583Z,738.00
2024-03-23T01:39:28.656Z,736.00
2024-03-23T01:40:28.784Z,736.00
2024-03-23T01:41:28.759Z,737.00
2024-03-23T01:42:28.849Z,735.00
2024-03-23T01:43:28.903Z,730.00
2024-03-23T01:44:28.958Z,729.00
2024-03-23T01:45:29.031Z,730.00
2024-03-23T01:46:29.096Z,731.00
2024-03-23T01:47:29.143Z,732.00
2024-03-23T01:48:29.182Z,732.00
2024-03-23T01:49:29.261Z,733.00
2024-03-23T01:50:29.319Z,730.00
2024-03-23T01:51:29.395Z,730.00
2024-03-23T01:52:29.454Z,726.00
2024-03-23T01:53:29.516Z,728.00
2024-03-23T01:54:29.580Z,728.00
2024-03-23T01:55:29.643Z,728.00
2024-03-23T01:56:29.710Z,724.00
2024-03-23T01:57:29.761Z,719.00
2024-03-23T01:58:29.844Z,712.00
2024-03-23T01:59:29.898Z,708.00
2024-03-23T02:00:29.952Z,709.00
2024-03-23T02:01:30.019Z,711.00
2024-03-23T02:02:30.075Z,714.00
2024-03-23T02:03:30.144Z,717.00
2024-03-23T02:04:30.226Z,716.00
2024-03-23T02:05:30.267Z,711.00
2024-03-23T02:06:30.361Z,712.00
2024-03-23T02:07:30.412Z,714.00
2024-03-23T02:08:30.466Z,714.00
2024-03-23T02:09:30.534Z,714.00
2024-03-23T02:10:30.619Z,712.00
2024-03-23T02:11:30.683Z,708.00
2024-03-23T02:12:30.736Z,707.00
2024-03-23T02:13:30.829Z,704.00
2024-03-23T02:14:30.867Z,702.00
2024-03-23T02:15:30.970Z,700.00
2024-03-23T02:16:31.043Z,700.00
2024-03-23T02:17:31.076Z,698.00
2024-03-23T02:18:31.145Z,695.00
2024-03-23T02:19:31.229Z,692.00
2024-03-23T02:20:31.305Z,691.00
2024-03-23T02:21:31.356Z,692.00
2024-03-23T02:22:31.440Z,690.00
2024-03-23T02:23:31.522Z,693.00
2024-03-23T02:24:31.566Z,694.00
2024-03-23T02:25:31.648Z,696.00
2024-03-23T02:26:31.741Z,695.00
2024-03-23T02:27:31.771Z,693.00
2024-03-23T02:28:31.873Z,697.00
2024-03-23T02:29:31.935Z,691.00
2024-03-23T02:30:31.982Z,689.00
2024-03-23T02:31:32.089Z,689.00
2024-03-23T02:32:32.130Z,689.00
2024-03-23T02:33:32.219Z,689.00
2024-03-23T02:34:32.285Z,689.00
2024-03-23T02:35:32.333Z,684.00
2024-03-23T02:36:32.428Z,686.00
2024-03-23T02:37:32.482Z,684.00
2024-03-23T02:38:32.576Z,681.00
2024-03-23T02:39:32.653Z,679.00
2024-03-23T02:40:32.713Z,679.00
2024-03-23T02:41:32.767Z,680.00
2024-03-23T02:42:32.844Z,681.00
2024-03-23T02:43:32.939Z,682.00
2024-03-23T02:44:32.993Z,683.00
2024-03-23T02:45:33.040Z,682.00
2024-03-23T02:46:33.102Z,683.00
2024-03-23T02:47:33.169Z,683.00
2024-03-23T02:48:33.250Z,685.00
2024-03-23T02:49:33.322Z,686.00
2024-03-23T02:50:33.349Z,687.00
2024-03-23T02:51:33.430Z,684.00
2024-03-23T02:52:33.510Z,686.00
2024-03-23T02:53:33.544Z,688.00
2024-03-23T02:54:33.617Z,688.00
2024-03-23T02:55:33.680Z,685.00
2024-03-23T02:56:33.749Z,685.00
2024-03-23T02:57:33.799Z,680.00
2024-03-23T02:58:33.876Z,681.00
2024-03-23T02:59:33.940Z,680.00
2024-03-23T03:00:34.028Z,679.00
2024-03-23T03:01:34.085Z,676.00
2024-03-23T03:02:34.148Z,676.00
2024-03-23T03:03:34.219Z,674.00
2024-03-23T03:04:34.301Z,677.00
2024-03-23T03:05:34.358Z,674.00
2024-03-23T03:06:34.430Z,677.00
2024-03-23T03:07:34.501Z,676.00
2024-03-23T03:08:34.568Z,675.00
2024-03-23T03:09:34.644Z,678.00
2024-03-23T03:10:34.749Z,677.00
2024-03-23T03:11:34.769Z,676.00
2024-03-23T03:12:34.846Z,675.00
2024-03-23T03:13:34.918Z,673.00
2024-03-23T03:14:34.988Z,670.00
2024-03-23T03:15:35.049Z,669.00
2024-03-23T03:16:35.101Z,666.00
2024-03-23T03:17:35.171Z,665.00
2024-03-23T03:18:35.232Z,664.00
2024-03-23T03:19:35.320Z,663.00
2024-03-23T03:20:35.370Z,663.00
2024-03-23T03:21:35.474Z,665.00
2024-03-23T03:22:35.521Z,666.00
2024-03-23T03:23:35.590Z,666.00
2024-03-23T03:24:35.699Z,667.00
2024-03-23T03:25:35.751Z,666.00
2024-03-23T03:26:35.814Z,668.00
2024-03-23T03:27:35.883Z,669.00
2024-03-23T03:28:35.941Z,669.00
2024-03-23T03:29:36.012Z,672.00
2024-03-23T03:30:36.080Z,670.00
2024-03-23T03:31:36.147Z,671.00
2024-03-23T03:32:36.220Z,670.00
2024-03-23T03:33:36.288Z,668.00
2024-03-23T03:34:36.377Z,671.00
2024-03-23T03:35:36.425Z,671.00
2024-03-23T03:36:36.498Z,672.00
2024-03-23T03:37:36.593Z,673.00
2024-03-23T03:38:36.639Z,676.00
2024-03-23T03:39:36.734Z,677.00
2024-03-23T03:40:36.813Z,677.00
2024-03-23T03:41:36.870Z,677.00
2024-03-23T03:42:36.918Z,676.00
2024-03-23T03:43:36.990Z,673.00
2024-03-23T03:44:37.089Z,673.00
2024-03-23T03:45:37.143Z,674.00
2024-03-23T03:46:37.228Z,677.00
2024-03-23T03:47:37.292Z,677.00
2024-03-23T03:48:37.376Z,677.00
2024-03-23T03:49:37.430Z,680.00
2024-03-23T03:50:37.517Z,682.00
2024-03-23T03:51:37.571Z,683.00
2024-03-23T03:52:37.643Z,687.00
2024-03-23T03:53:37.732Z,686.00
2024-03-23T03:54:37.810Z,684.00
2024-03-23T03:55:37.862Z,682.00
2024-03-23T03:56:37.921Z,681.00
2024-03-23T03:57:37.973Z,679.00
2024-03-23T03:58:38.030Z,678.00
2024-03-23T03:59:38.106Z,678.00
2024-03-23T04:00:38.168Z,677.00
2024-03-23T04:01:38.236Z,678.00
2024-03-23T04:02:38.305Z,678.00
2024-03-23T04:03:38.367Z,679.00
2024-03-23T04:04:38.419Z,677.00
2024-03-23T04:05:38.474Z,677.00
2024-03-23T04:06:38.531Z,680.00
2024-03-23T04:07:38.582Z,681.00
2024-03-23T04:08:38.631Z,679.00
2024-03-23T04:09:38.692Z,678.00
2024-03-23T04:10:38.788Z,679.00
2024-03-23T04:11:38.788Z,679.00
2024-03-23T04:12:38.862Z,678.00
2024-03-23T04:13:38.912Z,678.00
2024-03-23T04:14:38.990Z,678.00
2024-03-23T04:15:39.070Z,678.00
2024-03-23T04:16:39.078Z,677.00
2024-03-23T04:17:39.150Z,678.00
2024-03-23T04:18:39.212Z,680.00
2024-03-23T04:19:39.284Z,680.00
2024-03-23T04:20:39.310Z,680.00
2024-03-23T04:21:39.348Z,681.00
2024-03-23T04:22:39.416Z,680.00
2024-03-23T04:23:39.471Z,681.00
2024-03-23T04:24:46.648Z,681.00
2024-03-23T04:25:46.629Z,677.00
2024-03-23T04:26:46.633Z,671.00
2024-03-23T04:27:46.653Z,672.00
2024-03-23T04:28:46.655Z,671.00
2024-03-23T04:29:46.645Z,670.00
2024-03-23T04:30:46.663Z,671.00
2024-03-23T04:31:53.840Z,668.00
2024-03-23T04:32:53.838Z,670.00
2024-03-23T04:33:53.842Z,671.00
2024-03-23T04:34:53.869Z,671.00
2024-03-23T04:35:53.841Z,673.00
2024-03-23T04:36:53.843Z,676.00
2024-03-23T04:37:53.866Z,676.00
2024-03-23T04:38:53.851Z,675.00
2024-03-23T04:39:53.976Z,673.00
2024-03-23T04:40:53.859Z,672.00
2024-03-23T04:41:53.868Z,671.00
2024-03-23T04:42:53.848Z,670.00
2024-03-23T04:43:53.961Z,671.00
2024-03-23T04:44:53.953Z,673.00
2024-03-23T04:45:53.863Z,673.00
2024-03-23T04:46:53.875Z,673.00
2024-03-23T04:47:53.852Z,673.00
2024-03-23T04:48:53.898Z,675.00
2024-03-23T04:49:53.864Z,676.00
2024-03-23T04:50:53.883Z,675.00
2024-03-23T04:51:53.858Z,673.00
2024-03-23T04:52:53.875Z,672.00
2024-03-23T04:53:53.912Z,673.00
2024-03-23T04:54:53.959Z,672.00
2024-03-23T04:55:54.003Z,671.00
2024-03-23T04:56:54.041Z,666.00
2024-03-23T04:57:54.042Z,664.00
2024-03-23T04:58:54.093Z,665.00
2024-03-23T04:59:54.148Z,665.00
2024-03-23T05:00:54.161Z,668.00
2024-03-23T05:01:54.194Z,669.00
2024-03-23T05:02:54.246Z,670.00
2024-03-23T05:03:54.235Z,670.00
2024-03-23T05:04:54.288Z,670.00
2024-03-23T05:05:54.310Z,666.00
2024-03-23T05:06:54.359Z,665.00
2024-03-23T05:07:54.404Z,664.00
2024-03-23T05:08:54.454Z,664.00
2024-03-23T05:09:54.512Z,666.00
2024-03-23T05:10:54.560Z,667.00
2024-03-23T05:11:54.613Z,667.00
2024-03-23T05:12:54.656Z,668.00
2024-03-23T05:13:54.702Z,668.00
2024-03-23T05:14:54.713Z,671.00
2024-03-23T05:15:54.756Z,670.00
2024-03-23T05:16:54.868Z,674.00
2024-03-23T05:17:54.886Z,675.00
2024-03-23T05:18:54.959Z,674.00
2024-03-23T05:19:55.850Z,673.00
2024-03-23T05:20:55.104Z,675.00
2024-03-23T05:21:55.162Z,674.00
2024-03-23T05:22:55.233Z,673.00
2024-03-23T05:23:55.295Z,671.00
2024-03-23T05:24:55.364Z,672.00
2024-03-23T05:25:55.409Z,672.00
2024-03-23T05:26:55.429Z,672.00
2024-03-23T05:27:55.478Z,672.00
2024-03-23T05:28:55.540Z,673.00
2024-03-23T05:29:55.589Z,675.00
2024-03-23T05:30:55.649Z,675.00
2024-03-23T05:31:55.708Z,675.00
2024-03-23T05:32:55.811Z,675.00
2024-03-23T05:33:55.899Z,679.00
2024-03-23T05:34:55.874Z,680.00
2024-03-23T05:35:55.919Z,681.00
2024-03-23T05:36:55.925Z,679.00
2024-03-23T05:37:55.982Z,680.00
2024-03-23T05:38:56.016Z,678.00
2024-03-23T05:39:56.045Z,677.00
2024-03-23T05:40:56.077Z,679.00
2024-03-23T05:41:56.119Z,679.00
2024-03-23T05:42:56.162Z,677.00
2024-03-23T05:43:56.236Z,676.00
2024-03-23T05:44:56.249Z,677.00
2024-03-23T05:45:56.281Z,679.00
2024-03-23T05:46:56.326Z,680.00
2024-03-23T05:47:56.359Z,681.00
2024-03-23T05:48:56.394Z,682.00
2024-03-23T05:49:56.564Z,681.00
2024-03-23T05:50:56.463Z,682.00
2024-03-23T05:51:56.506Z,683.00
2024-03-23T05:52:56.522Z,681.00
2024-03-23T05:53:56.548Z,683.00
2024-03-23T05:54:56.595Z,683.00
2024-03-23T05:55:56.606Z,681.00
2024-03-23T05:56:56.618Z,683.00
2024-03-23T05:57:56.641Z,683.00
2024-03-23T05:58:56.665Z,681.00
2024-03-23T05:59:56.686Z,682.00
2024-03-23T06:00:56.672Z,682.00
2024-03-23T06:01:56.688Z,681.00
2024-03-23T06:02:56.736Z,683.00
2024-03-23T06:03:56.808Z,686.00
2024-03-23T06:04:56.834Z,685.00
2024-03-23T06:05:56.860Z,684.00
2024-03-23T06:06:56.868Z,683.00
2024-03-23T06:07:59.603Z,681.00
2024-03-23T06:08:56.895Z,680.00
2024-03-23T06:09:56.901Z,678.00
2024-03-23T06:10:56.914Z,683.00
2024-03-23T06:11:56.922Z,690.00
2024-03-23T06:12:56.888Z,694.00
2024-03-23T06:13:56.912Z,693.00
2024-03-23T06:14:56.910Z,694.00
2024-03-23T06:15:56.894Z,695.00
2024-03-23T06:16:56.882Z,692.00
2024-03-23T06:17:56.899Z,691.00
2024-03-23T06:18:56.899Z,690.00
2024-03-23T06:19:56.912Z,691.00
2024-03-23T06:20:56.906Z,694.00
2024-03-23T06:21:56.898Z,691.00
2024-03-23T06:22:56.905Z,691.00
2024-03-23T06:23:57.003Z,689.00
2024-03-23T06:24:56.909Z,691.00
2024-03-23T06:25:56.930Z,693.00
2024-03-23T06:26:56.929Z,693.00
2024-03-23T06:27:56.926Z,694.00
2024-03-23T06:28:56.947Z,692.00
2024-03-23T06:29:56.940Z,688.00
2024-03-23T06:30:56.920Z,681.00
2024-03-23T06:31:56.939Z,677.00
2024-03-23T06:32:56.932Z,673.00
2024-03-23T06:33:56.935Z,674.00
2024-03-23T06:34:56.936Z,673.00
2024-03-23T06:35:57.007Z,673.00
2024-03-23T06:36:56.937Z,671.00
2024-03-23T06:37:56.988Z,671.00
2024-03-23T06:38:57.022Z,672.00
2024-03-23T06:39:57.079Z,671.00
2024-03-23T06:40:57.119Z,669.00
2024-03-23T06:41:57.165Z,668.00
2024-03-23T06:42:57.165Z,668.00
2024-03-23T06:43:57.523Z,670.00
2024-03-23T06:44:57.195Z,670.00
2024-03-23T06:45:57.202Z,667.00
2024-03-23T06:46:57.233Z,666.00
2024-03-23T06:47:57.283Z,668.00
2024-03-23T06:48:57.303Z,668.00
2024-03-23T06:49:57.368Z,671.00
2024-03-23T06:50:57.388Z,669.00
2024-03-23T06:51:57.447Z,669.00
2024-03-23T06:52:57.487Z,671.00
2024-03-23T06:53:57.561Z,669.00
2024-03-23T06:54:57.622Z,667.00
2024-03-23T06:55:57.638Z,666.00
2024-03-23T06:56:57.700Z,666.00
2024-03-23T06:57:57.772Z,665.00
2024-03-23T06:58:57.843Z,665.00
2024-03-23T06:59:57.903Z,666.00
2024-03-23T07:00:57.942Z,667.00
2024-03-23T07:01:58.015Z,669.00
2024-03-23T07:02:58.083Z,670.00
2024-03-23T07:03:58.184Z,672.00
2024-03-23T07:04:58.220Z,669.00
2024-03-23T07:05:58.286Z,668.00
2024-03-23T07:06:58.316Z,668.00
2024-03-23T07:07:58.380Z,666.00
2024-03-23T07:08:58.407Z,666.00
2024-03-23T07:09:58.433Z,664.00
2024-03-23T07:10:58.472Z,662.00
2024-03-23T07:11:58.486Z,662.00
2024-03-23T07:12:58.490Z,663.00
2024-03-23T07:13:58.485Z,662.00
2024-03-23T07:14:58.505Z,664.00
2024-03-23T07:15:58.513Z,664.00
2024-03-23T07:16:58.528Z,665.00
2024-03-23T07:17:58.517Z,665.00
2024-03-23T07:18:58.518Z,666.00
2024-03-23T07:19:58.535Z,666.00
2024-03-23T07:20:58.525Z,666.00
2024-03-23T07:21:58.531Z,666.00
2024-03-23T07:22:58.550Z,666.00
2024-03-23T07:23:58.564Z,665.00
2024-03-23T07:24:58.533Z,666.00
2024-03-23T07:25:58.559Z,665.00
2024-03-23T07:26:58.565Z,665.00
2024-03-23T07:28:00.510Z,664.00
2024-03-23T07:28:58.612Z,661.00
2024-03-23T07:29:58.573Z,660.00
2024-03-23T07:30:58.569Z,660.00
2024-03-23T07:31:58.593Z,657.00
2024-03-23T07:32:58.576Z,658.00
2024-03-23T07:33:58.579Z,658.00
2024-03-23T07:34:58.578Z,658.00
2024-03-23T07:35:58.579Z,658.00
2024-03-23T07:36:58.579Z,661.00
2024-03-23T07:37:58.580Z,660.00
2024-03-23T07:39:07.605Z,659.00
2024-03-23T07:39:59.600Z,661.00
2024-03-23T07:40:58.585Z,660.00
2024-03-23T07:41:58.604Z,661.00
2024-03-23T07:42:58.593Z,658.00
2024-03-23T07:43:58.628Z,660.00
2024-03-23T07:44:58.622Z,660.00
2024-03-23T07:45:58.600Z,661.00
2024-03-23T07:46:58.603Z,663.00
2024-03-23T07:47:58.595Z,664.00
2024-03-23T07:48:58.629Z,658.00
2024-03-23T07:49:58.609Z,659.00
2024-03-23T07:50:58.599Z,657.00
2024-03-23T07:51:58.623Z,656.00
2024-03-23T07:52:58.613Z,654.00
2024-03-23T07:53:58.618Z,654.00
2024-03-23T07:54:58.618Z,651.00
2024-03-23T07:55:58.631Z,652.00
2024-03-23T07:56:58.613Z,653.00
2024-03-23T07:57:58.618Z,654.00
2024-03-23T07:58:58.621Z,652.00
2024-03-23T07:59:58.623Z,652.00
2024-03-23T08:00:58.644Z,654.00
2024-03-23T08:02:00.420Z,653.00
2024-03-23T08:02:58.625Z,654.00
2024-03-23T08:03:58.654Z,651.00
2024-03-23T08:04:58.662Z,650.00
2024-03-23T08:05:58.653Z,649.00
2024-03-23T08:06:58.639Z,649.00
2024-03-23T08:07:58.645Z,650.00
2024-03-23T08:08:58.638Z,650.00
2024-03-23T08:09:58.662Z,650.00
2024-03-23T08:10:58.647Z,651.00
2024-03-23T08:11:58.639Z,652.00
2024-03-23T08:12:58.644Z,648.00
2024-03-23T08:13:58.626Z,647.00
2024-03-23T08:14:58.639Z,647.00
2024-03-23T08:15:58.627Z,648.00
2024-03-23T08:16:58.630Z,649.00
2024-03-23T08:17:58.636Z,653.00
2024-03-23T08:18:58.632Z,653.00
2024-03-23T08:19:58.637Z,651.00
2024-03-23T08:20:58.650Z,652.00
2024-03-23T08:21:58.638Z,652.00
2024-03-23T08:22:58.638Z,654.00
2024-03-23T08:23:58.641Z,654.00
2024-03-23T08:24:58.664Z,654.00
2024-03-23T08:25:58.645Z,652.00
2024-03-23T08:26:58.662Z,651.00
2024-03-23T08:27:58.648Z,650.00
2024-03-23T08:28:58.674Z,647.00
2024-03-23T08:29:58.707Z,646.00
2024-03-23T08:30:58.726Z,645.00
2024-03-23T08:31:58.756Z,642.00
2024-03-23T08:32:58.779Z,642.00
2024-03-23T08:33:58.803Z,639.00
2024-03-23T08:34:58.864Z,638.00
2024-03-23T08:35:58.876Z,638.00
2024-03-23T08:36:58.905Z,638.00
2024-03-23T08:37:58.950Z,636.00
2024-03-23T08:38:58.982Z,633.00
2024-03-23T08:39:59.012Z,632.00
2024-03-23T08:40:59.091Z,630.00
2024-03-23T08:41:59.089Z,629.00
2024-03-23T08:42:59.133Z,630.00
2024-03-23T08:43:59.175Z,629.00
2024-03-23T08:44:59.249Z,627.00
2024-03-23T08:45:59.265Z,629.00
2024-03-23T08:46:59.304Z,630.00
2024-03-23T08:47:59.352Z,629.00
2024-03-23T08:48:59.394Z,628.00
2024-03-23T08:49:59.443Z,627.00
2024-03-23T08:50:59.493Z,626.00
2024-03-23T08:51:59.543Z,624.00
2024-03-23T08:52:59.625Z,622.00
2024-03-23T08:53:59.726Z,621.00
2024-03-23T08:54:59.815Z,624.00
2024-03-23T08:55:59.766Z,621.00
2024-03-23T08:56:59.793Z,620.00
2024-03-23T08:57:59.826Z,619.00
2024-03-23T08:58:59.873Z,619.00
2024-03-23T08:59:59.939Z,618.00
2024-03-23T09:00:59.983Z,618.00
2024-03-23T09:02:00.079Z,615.00
2024-03-23T09:03:00.114Z,612.00
2024-03-23T09:04:00.173Z,612.00
2024-03-23T09:05:00.247Z,610.00
2024-03-23T09:06:00.276Z,610.00
2024-03-23T09:07:00.365Z,610.00
2024-03-23T09:08:00.408Z,612.00
2024-03-23T09:09:00.464Z,612.00
2024-03-23T09:10:00.515Z,614.00
2024-03-23T09:11:00.547Z,614.00
2024-03-23T09:12:00.605Z,612.00
2024-03-23T09:13:00.667Z,609.00
2024-03-23T09:14:00.719Z,610.00
2024-03-23T09:15:00.798Z,609.00
2024-03-23T09:16:00.862Z,609.00
2024-03-23T09:17:00.930Z,607.00
2024-03-23T09:18:00.971Z,606.00
2024-03-23T09:19:01.023Z,604.00
2024-03-23T09:20:01.134Z,605.00
2024-03-23T09:21:01.153Z,604.00
2024-03-23T09:22:01.269Z,605.00
2024-03-23T09:23:01.296Z,604.00
2024-03-23T09:24:01.360Z,601.00
2024-03-23T09:25:01.460Z,601.00
2024-03-23T09:26:01.514Z,601.00
2024-03-23T09:27:01.568Z,603.00
2024-03-23T09:28:01.664Z,604.00
2024-03-23T09:29:01.717Z,601.00
2024-03-23T09:30:01.798Z,600.00
2024-03-23T09:31:01.852Z,599.00
2024-03-23T09:32:01.935Z,599.00
2024-03-23T09:33:02.004Z,597.00
2024-03-23T09:34:02.096Z,599.00
2024-03-23T09:35:02.140Z,597.00
2024-03-23T09:36:02.189Z,593.00
2024-03-23T09:37:02.247Z,593.00
2024-03-23T09:38:02.271Z,595.00
2024-03-23T09:39:02.286Z,597.00
2024-03-23T09:40:02.327Z,597.00
2024-03-23T09:41:02.348Z,596.00
2024-03-23T09:42:02.342Z,595.00
2024-03-23T09:43:02.348Z,595.00
2024-03-23T09:44:02.343Z,594.00
2024-03-23T09:45:02.368Z,590.00
2024-03-23T09:46:02.357Z,593.00
2024-03-23T09:47:02.360Z,595.00
2024-03-23T09:48:02.376Z,599.00
2024-03-23T09:49:02.365Z,603.00
2024-03-23T09:50:02.390Z,601.00
2024-03-23T09:51:02.377Z,601.00
2024-03-23T09:52:02.397Z,602.00
2024-03-23T09:53:02.409Z,599.00
2024-03-23T09:54:02.409Z,597.00
2024-03-23T09:55:02.439Z,594.00
2024-03-23T09:56:02.427Z,594.00
2024-03-23T09:57:02.440Z,593.00
2024-03-23T09:58:02.441Z,592.00
2024-03-23T09:59:02.448Z,587.00
2024-03-23T10:00:02.475Z,586.00
2024-03-23T10:01:02.488Z,587.00
2024-03-23T10:02:02.490Z,587.00
2024-03-23T10:03:04.630Z,583.00
2024-03-23T10:04:02.515Z,583.00
2024-03-23T10:05:02.510Z,585.00
2024-03-23T10:06:02.548Z,582.00
2024-03-23T10:07:02.522Z,582.00
2024-03-23T10:08:02.522Z,581.00
2024-03-23T10:09:02.513Z,580.00
2024-03-23T10:10:02.524Z,581.00
2024-03-23T10:11:02.527Z,584.00
2024-03-23T10:12:02.528Z,582.00
2024-03-23T10:13:02.523Z,584.00
2024-03-23T10:14:02.859Z,584.00
2024-03-23T10:15:02.547Z,586.00
2024-03-23T10:16:02.547Z,587.00
2024-03-23T10:17:02.534Z,587.00
2024-03-23T10:18:02.540Z,585.00
2024-03-23T10:19:02.543Z,586.00
2024-03-23T10:20:02.555Z,585.00
2024-03-23T10:21:04.837Z,584.00
2024-03-23T10:22:02.547Z,582.00
2024-03-23T10:23:02.567Z,583.00
2024-03-23T10:24:02.554Z,582.00
2024-03-23T10:25:02.557Z,581.00
2024-03-23T10:26:02.563Z,580.00
2024-03-23T10:27:02.556Z,579.00
2024-03-23T10:28:02.578Z,579.00
2024-03-23T10:29:02.574Z,579.00
2024-03-23T10:30:02.570Z,578.00
2024-03-23T10:31:02.593Z,580.00
2024-03-23T10:32:02.618Z,576.00
2024-03-23T10:33:04.075Z,578.00
2024-03-23T10:34:02.819Z,577.00
2024-03-23T10:35:02.858Z,579.00
2024-03-23T10:36:02.863Z,578.00
2024-03-23T10:37:02.894Z,577.00
2024-03-23T10:38:02.970Z,574.00
2024-03-23T10:39:05.512Z,572.00
2024-03-23T10:40:03.959Z,570.00
2024-03-23T10:41:02.960Z,569.00
2024-03-23T10:42:02.958Z,567.00
2024-03-23T10:43:02.967Z,569.00
2024-03-23T10:44:02.945Z,568.00
2024-03-23T10:45:02.983Z,568.00
2024-03-23T10:46:02.962Z,567.00
2024-03-23T10:47:02.955Z,568.00
2024-03-23T10:48:02.953Z,568.00
2024-03-23T10:49:02.956Z,570.00
2024-03-23T10:50:02.961Z,569.00
2024-03-23T10:51:05.290Z,568.00
2024-03-23T10:52:02.971Z,567.00
2024-03-23T10:53:02.963Z,565.00
2024-03-23T10:54:02.966Z,564.00
2024-03-23T10:55:02.979Z,564.00
2024-03-23T10:56:02.974Z,560.00
2024-03-23T10:57:02.965Z,558.00
2024-03-23T10:58:02.980Z,561.00
2024-03-23T10:59:02.986Z,562.00
2024-03-23T11:00:03.015Z,562.00
2024-03-23T11:01:02.984Z,558.00
2024-03-23T11:02:02.986Z,555.00
2024-03-23T11:03:02.982Z,555.00
2024-03-23T11:04:02.984Z,554.00
2024-03-23T11:05:02.990Z,552.00
2024-03-23T11:06:02.984Z,551.00
2024-03-23T11:07:02.991Z,555.00
2024-03-23T11:08:02.993Z,554.00
2024-03-23T11:09:02.990Z,553.00
2024-03-23T11:10:03.004Z,554.00
2024-03-23T11:11:02.991Z,553.00
2024-03-23T11:12:02.992Z,550.00
2024-03-23T11:13:03.008Z,549.00
2024-03-23T11:14:03.004Z,545.00
2024-03-23T11:15:03.024Z,545.00
2024-03-23T11:16:03.012Z,544.00
2024-03-23T11:17:03.008Z,539.00
2024-03-23T11:18:03.009Z,540.00
2024-03-23T11:19:03.008Z,540.00
2024-03-23T11:20:03.014Z,537.00
2024-03-23T11:21:02.998Z,537.00
2024-03-23T11:22:03.128Z,535.00
2024-03-23T11:23:03.003Z,534.00
2024-03-23T11:24:03.006Z,534.00
2024-03-23T11:25:03.001Z,535.00
2024-03-23T11:26:03.016Z,531.00
2024-03-23T11:27:03.027Z,529.00
2024-03-23T11:28:03.032Z,529.00
2024-03-23T11:29:02.999Z,529.00
2024-03-23T11:30:03.041Z,528.00
2024-03-23T11:31:03.005Z,527.00
2024-03-23T11:32:03.019Z,526.00
2024-03-23T11:33:03.037Z,526.00
2024-03-23T11:34:03.107Z,525.00
2024-03-23T11:35:03.200Z,526.00
2024-03-23T11:36:03.269Z,526.00
2024-03-23T11:37:03.324Z,525.00
2024-03-23T11:38:03.373Z,522.00
2024-03-23T11:39:03.429Z,521.00
2024-03-23T11:40:03.518Z,521.00
2024-03-23T11:41:03.573Z,521.00
2024-03-23T11:42:03.642Z,522.00
2024-03-23T11:43:03.710Z,523.00
2024-03-23T11:44:03.770Z,522.00
2024-03-23T11:45:03.879Z,522.00
2024-03-23T11:46:03.914Z,524.00
2024-03-23T11:47:03.978Z,524.00
2024-03-23T11:48:04.060Z,525.00
2024-03-23T11:49:04.199Z,524.00
2024-03-23T11:50:04.226Z,524.00
2024-03-23T11:51:04.282Z,524.00
2024-03-23T11:52:04.331Z,525.00
2024-03-23T11:53:04.403Z,526.00
2024-03-23T11:54:04.442Z,523.00
2024-03-23T11:55:04.525Z,523.00
2024-03-23T11:56:04.553Z,523.00
2024-03-23T11:57:04.568Z,522.00
2024-03-23T11:58:04.589Z,521.00
2024-03-23T11:59:04.594Z,518.00
2024-03-23T12:00:04.614Z,518.00
2024-03-23T12:01:04.617Z,515.00
2024-03-23T12:02:04.642Z,517.00
2024-03-23T12:03:04.665Z,518.00
2024-03-23T12:04:04.657Z,517.00
2024-03-23T12:05:04.669Z,518.00
2024-03-23T12:06:04.672Z,517.00
2024-03-23T12:07:04.686Z,517.00
2024-03-23T12:08:04.688Z,518.00
2024-03-23T12:09:04.689Z,518.00
2024-03-23T12:10:04.692Z,517.00
2024-03-23T12:11:04.702Z,519.00
2024-03-23T12:12:04.710Z,518.00
2024-03-23T12:13:04.733Z,515.00
2024-03-23T12:14:04.767Z,514.00
2024-03-23T12:15:04.741Z,513.00
2024-03-23T12:16:04.747Z,515.00
2024-03-23T12:17:04.771Z,513.00
2024-03-23T12:18:04.814Z,508.00
2024-03-23T12:19:04.830Z,507.00
2024-03-23T12:20:04.833Z,506.00
2024-03-23T12:21:04.834Z,508.00
2024-03-23T12:22:04.855Z,508.00
2024-03-23T12:23:04.851Z,507.00
2024-03-23T12:24:04.873Z,507.00
2024-03-23T12:25:04.914Z,507.00
2024-03-23T12:26:04.928Z,506.00
2024-03-23T12:27:04.949Z,506.00
2024-03-23T12:28:04.968Z,506.00
2024-03-23T12:29:05.011Z,510.00